Time;durP1;ratioP1;P1;durP2;ratioP2;P2;SDS_P1;SDS_P2;PMS_P1;PMS_P2;Temp;Humidity;BMP_temperature;BMP_pressure;BME280_temperature;BME280_humidity;BME280_pressure;Samples;Min_cycle;Max_cycle;Signal;HPM_P1;HPM_P2
2022/03/26 00:02:54;;;;;;;19.27;13.67;;;7.10;52.10;;;;;;6259736;28;20197;-60
2022/03/26 00:05:55;;;;;;;22.33;14.47;;;7.20;52.40;;;;;;6244185;28;20197;-60
2022/03/26 00:08:56;;;;;;;19.53;13.53;;;7.10;52.50;;;;;;6260851;28;20197;-60
2022/03/26 00:11:57;;;;;;;21.63;14.07;;;7.10;52.60;;;;;;6239768;28;20292;-60
2022/03/26 00:14:58;;;;;;;22.77;14.07;;;7.00;52.60;;;;;;6234055;28;20292;-60
2022/03/26 00:17:59;;;;;;;19.33;13.13;;;6.90;52.90;;;;;;6243019;28;20235;-60
2022/03/26 00:21:05;;;;;;;19.80;13.13;;;6.80;53.20;;;;;;6227068;28;20246;-60
2022/03/26 00:24:06;;;;;;;19.70;13.97;;;6.80;53.70;;;;;;6243534;28;20193;-60
2022/03/26 00:27:07;;;;;;;19.50;12.67;;;6.80;53.60;;;;;;6260240;28;20229;-60
2022/03/26 00:30:11;;;;;;;16.13;11.57;;;6.80;53.70;;;;;;6243518;28;20251;-59
2022/03/26 00:33:13;;;;;;;15.73;12.80;;;6.90;53.50;;;;;;6258944;28;20217;-60
2022/03/26 00:36:13;;;;;;;19.57;13.57;;;6.90;53.10;;;;;;6243219;28;20193;-60
2022/03/26 00:39:14;;;;;;;18.60;12.50;;;6.90;53.00;;;;;;6241564;28;20188;-60
2022/03/26 00:42:15;;;;;;;19.20;13.63;;;6.70;53.40;;;;;;6231669;28;20190;-60
2022/03/26 00:45:16;;;;;;;19.67;12.93;;;6.60;53.10;;;;;;6222706;28;20194;-60
2022/03/26 00:48:17;;;;;;;17.67;11.90;;;6.60;53.90;;;;;;6242276;28;20200;-60
2022/03/26 00:51:18;;;;;;;17.57;12.37;;;6.60;54.50;;;;;;6242862;28;20221;-61
2022/03/26 00:54:19;;;;;;;18.33;12.73;;;6.60;54.10;;;;;;6275105;28;20201;-61
2022/03/26 00:57:21;;;;;;;18.20;13.27;;;6.70;53.60;;;;;;6237264;28;20193;-60
2022/03/26 01:00:22;;;;;;;22.00;12.70;;;6.60;53.70;;;;;;6218449;28;20201;-60
2022/03/26 01:03:22;;;;;;;18.63;12.00;;;6.50;54.00;;;;;;6234789;28;20197;-62
2022/03/26 01:06:23;;;;;;;17.70;12.03;;;6.50;54.30;;;;;;6218349;28;20212;-62
2022/03/26 01:09:24;;;;;;;18.90;13.07;;;6.40;54.40;;;;;;6218116;28;20238;-62
2022/03/26 01:12:25;;;;;;;19.43;12.57;;;6.30;54.80;;;;;;6231629;28;20206;-62
2022/03/26 01:15:26;;;;;;;18.47;12.80;;;6.30;54.80;;;;;;6228698;28;20197;-62
2022/03/26 01:18:28;;;;;;;20.07;12.67;;;6.30;54.50;;;;;;6248234;28;20197;-62
2022/03/26 01:21:28;;;;;;;18.87;13.13;;;6.30;54.90;;;;;;6256116;28;20197;-60
2022/03/26 01:24:29;;;;;;;16.53;12.30;;;6.20;55.00;;;;;;6242127;28;20197;-60
2022/03/26 01:27:30;;;;;;;17.93;12.37;;;6.20;55.20;;;;;;6242405;28;20244;-60
2022/03/26 01:30:31;;;;;;;19.67;13.17;;;6.20;55.20;;;;;;6242060;28;20206;-60
2022/03/26 01:33:32;;;;;;;19.90;12.47;;;6.20;55.20;;;;;;6241883;28;20220;-61
2022/03/26 01:36:33;;;;;;;17.77;12.17;;;6.20;55.40;;;;;;6241015;28;20199;-61
2022/03/26 01:39:33;;;;;;;19.33;13.30;;;6.20;55.20;;;;;;6241006;28;20254;-61
2022/03/26 01:42:34;;;;;;;16.30;12.00;;;6.30;55.20;;;;;;6225489;28;20195;-60
2022/03/26 01:45:35;;;;;;;19.60;13.90;;;6.20;55.50;;;;;;6225106;28;20197;-61
2022/03/26 01:48:37;;;;;;;18.37;12.97;;;6.20;55.60;;;;;;6241843;28;20205;-61
2022/03/26 01:51:38;;;;;;;18.33;12.97;;;6.10;55.80;;;;;;6230424;28;20225;-61
2022/03/26 01:54:40;;;;;;;17.57;12.70;;;6.20;55.70;;;;;;6217301;28;20193;-61
2022/03/26 01:57:41;;;;;;;18.87;13.40;;;6.10;55.90;;;;;;6216942;28;20193;-60
2022/03/26 02:00:42;;;;;;;17.77;13.23;;;6.10;55.60;;;;;;6224179;28;20233;-61
2022/03/26 02:03:43;;;;;;;20.80;14.27;;;6.10;55.70;;;;;;6237971;28;20201;-62
2022/03/26 02:06:43;;;;;;;20.27;12.83;;;6.20;55.60;;;;;;6233170;28;20191;-62
2022/03/26 02:09:44;;;;;;;20.43;13.53;;;6.20;55.50;;;;;;6216614;28;20214;-62
2022/03/26 02:12:46;;;;;;;18.03;12.93;;;6.10;55.60;;;;;;6216437;28;20201;-62
2022/03/26 02:15:48;;;;;;;22.07;13.27;;;6.10;55.80;;;;;;6216682;28;20229;-62
2022/03/26 02:18:49;;;;;;;19.03;13.87;;;6.10;55.80;;;;;;6236850;28;20197;-62
2022/03/26 02:21:50;;;;;;;19.37;12.43;;;6.00;56.10;;;;;;6240656;28;20285;-62
2022/03/26 02:24:51;;;;;;;19.13;13.23;;;5.90;56.40;;;;;;6238037;28;20193;-62
2022/03/26 02:27:52;;;;;;;22.07;14.90;;;5.90;56.40;;;;;;6284722;28;20314;-61
2022/03/26 02:30:53;;;;;;;20.10;12.90;;;6.00;55.90;;;;;;6283425;28;20213;-61
2022/03/26 02:33:54;;;;;;;20.10;13.87;;;6.00;55.90;;;;;;6273004;28;20197;-60
2022/03/26 02:36:59;;;;;;;19.50;13.67;;;6.00;55.50;;;;;;6273611;28;20261;-60
2022/03/26 02:40:02;;;;;;;21.73;13.33;;;6.00;55.90;;;;;;6289165;28;20244;-60
2022/03/26 02:43:06;;;;;;;19.33;13.90;;;5.90;56.30;;;;;;6268722;28;20198;-60
2022/03/26 02:46:06;;;;;;;20.67;13.60;;;5.90;56.30;;;;;;6264673;28;20202;-60
2022/03/26 02:49:07;;;;;;;17.67;12.43;;;5.90;56.30;;;;;;6253152;28;20209;-61
2022/03/26 02:52:08;;;;;;;21.03;13.53;;;5.80;56.40;;;;;;6252039;28;20288;-61
2022/03/26 02:55:09;;;;;;;21.80;12.43;;;5.80;56.70;;;;;;6290543;28;20189;-60
2022/03/26 02:58:10;;;;;;;21.20;14.03;;;5.70;56.80;;;;;;6273011;28;20243;-59
2022/03/26 03:01:13;;;;;;;20.07;13.33;;;5.80;56.90;;;;;;6290159;28;20194;-59
2022/03/26 03:04:14;;;;;;;21.37;14.30;;;5.70;57.10;;;;;;6273294;28;20295;-59
2022/03/26 03:07:15;;;;;;;19.70;14.03;;;5.60;57.40;;;;;;6289595;28;20221;-62
2022/03/26 03:10:16;;;;;;;20.13;13.90;;;5.50;57.60;;;;;;6289282;28;20216;-62
2022/03/26 03:13:21;;;;;;;19.83;12.83;;;5.40;57.80;;;;;;6273291;28;20200;-62
2022/03/26 03:16:21;;;;;;;19.50;13.20;;;5.50;57.80;;;;;;6232594;28;20198;-62
2022/03/26 03:19:22;;;;;;;20.43;13.33;;;5.40;58.10;;;;;;6256303;28;20192;-62
2022/03/26 03:22:23;;;;;;;20.80;12.60;;;5.40;57.90;;;;;;6289897;28;20194;-62
2022/03/26 03:25:26;;;;;;;20.73;13.50;;;5.40;58.20;;;;;;6273168;28;20217;-62
2022/03/26 03:28:27;;;;;;;19.40;12.47;;;5.30;58.40;;;;;;6271165;28;20270;-62
2022/03/26 03:31:28;;;;;;;20.27;14.53;;;5.30;58.30;;;;;;6263283;28;20214;-62
2022/03/26 03:34:29;;;;;;;21.27;14.37;;;5.30;58.40;;;;;;6309076;28;20185;-62
2022/03/26 03:37:33;;;;;;;21.10;13.10;;;5.30;58.50;;;;;;6252128;28;20212;-62
2022/03/26 03:40:34;;;;;;;22.13;12.33;;;5.20;58.50;;;;;;6257168;28;20194;-62
2022/03/26 03:43:35;;;;;;;21.27;13.27;;;5.20;58.60;;;;;;6219249;28;20193;-62
2022/03/26 03:46:36;;;;;;;19.13;13.63;;;5.10;58.90;;;;;;6270331;28;20280;-62
2022/03/26 03:49:37;;;;;;;22.07;14.53;;;5.20;58.70;;;;;;6271215;28;20229;-62
2022/03/26 03:52:38;;;;;;;22.13;14.37;;;5.20;59.10;;;;;;6268384;28;20201;-62
2022/03/26 03:55:39;;;;;;;26.00;14.47;;;5.30;58.90;;;;;;6272509;28;20201;-62
2022/03/26 03:58:39;;;;;;;21.73;14.13;;;5.30;58.80;;;;;;6285597;28;20240;-60
2022/03/26 04:01:40;;;;;;;19.93;14.27;;;5.20;58.50;;;;;;6277607;28;20177;-61
2022/03/26 04:04:42;;;;;;;20.53;14.47;;;5.20;58.60;;;;;;6298440;28;20197;-61
2022/03/26 04:07:46;;;;;;;21.60;14.27;;;5.30;58.70;;;;;;6247774;28;20204;-61
2022/03/26 04:10:47;;;;;;;19.07;13.70;;;5.20;58.30;;;;;;6276607;28;20225;-60
2022/03/26 04:13:52;;;;;;;20.87;13.57;;;5.10;58.90;;;;;;6277342;28;20319;-61
2022/03/26 04:16:53;;;;;;;21.40;14.23;;;5.10;59.10;;;;;;6276052;28;20224;-61
2022/03/26 04:19:54;;;;;;;21.63;14.30;;;5.10;59.10;;;;;;6254406;28;20190;-61
2022/03/26 04:22:55;;;;;;;19.80;13.37;;;5.00;59.50;;;;;;6268852;28;20369;-61
2022/03/26 04:25:56;;;;;;;20.47;12.87;;;5.00;59.80;;;;;;6260207;28;20201;-60
2022/03/26 04:28:57;;;;;;;22.20;14.47;;;4.90;59.60;;;;;;6287140;28;20244;-59
2022/03/26 04:31:59;;;;;;;21.83;14.60;;;4.80;59.90;;;;;;6246603;28;20213;-59
2022/03/26 04:34:59;;;;;;;23.93;13.87;;;4.90;59.80;;;;;;6256460;28;20224;-59
2022/03/26 04:38:01;;;;;;;23.43;14.67;;;4.80;59.90;;;;;;6255183;28;20181;-58
2022/03/26 04:41:02;;;;;;;18.50;13.07;;;4.80;60.10;;;;;;6256297;28;20203;-60
2022/03/26 04:44:03;;;;;;;21.33;13.67;;;4.80;60.10;;;;;;6255862;28;20192;-60
2022/03/26 04:47:04;;;;;;;19.30;13.97;;;4.80;60.20;;;;;;6281685;28;20200;-62
2022/03/26 04:50:06;;;;;;;21.97;13.87;;;4.80;60.10;;;;;;6251833;28;20220;-62
2022/03/26 04:53:07;;;;;;;19.90;14.10;;;4.80;60.20;;;;;;6263857;28;20215;-61
2022/03/26 04:56:08;;;;;;;24.60;13.93;;;4.70;60.50;;;;;;6235114;28;20186;-61
2022/03/26 04:59:09;;;;;;;20.00;13.20;;;4.70;60.80;;;;;;6243226;28;20243;-61
2022/03/26 05:02:09;;;;;;;21.17;14.10;;;4.70;60.60;;;;;;6246120;28;20197;-61
2022/03/26 05:05:12;;;;;;;18.77;13.93;;;4.70;60.40;;;;;;6252037;28;20197;-62
2022/03/26 05:08:13;;;;;;;21.97;14.47;;;4.60;60.60;;;;;;6259538;28;20273;-61
2022/03/26 05:11:15;;;;;;;21.73;13.60;;;4.70;60.40;;;;;;6244437;28;20216;-61
2022/03/26 05:14:16;;;;;;;20.33;14.07;;;4.70;60.60;;;;;;6234701;28;20201;-61
2022/03/26 05:17:17;;;;;;;21.00;13.33;;;4.70;60.60;;;;;;6218453;28;20280;-62
2022/03/26 05:20:18;;;;;;;18.17;11.73;;;4.70;60.50;;;;;;6218422;28;20190;-62
2022/03/26 05:23:19;;;;;;;22.10;13.70;;;4.70;60.70;;;;;;6242356;28;20193;-61
2022/03/26 05:26:22;;;;;;;22.50;13.70;;;4.70;60.30;;;;;;6242342;28;20250;-61
2022/03/26 05:29:23;;;;;;;22.53;14.70;;;4.80;60.40;;;;;;6241637;28;20225;-61
2022/03/26 05:32:24;;;;;;;21.53;13.80;;;4.80;60.60;;;;;;6241751;28;20199;-61
2022/03/26 05:35:25;;;;;;;23.00;14.87;;;4.90;60.60;;;;;;6241843;28;20189;-62
2022/03/26 05:38:26;;;;;;;20.60;13.60;;;4.90;61.10;;;;;;6241882;28;20193;-62
2022/03/26 05:41:27;;;;;;;21.30;13.07;;;5.00;61.00;;;;;;6228298;28;20250;-61
2022/03/26 05:44:28;;;;;;;18.37;13.63;;;5.00;61.00;;;;;;6256100;28;20265;-61
2022/03/26 05:47:30;;;;;;;20.80;14.17;;;5.00;60.70;;;;;;6233674;28;20204;-61
2022/03/26 05:50:33;;;;;;;18.20;13.20;;;5.10;60.60;;;;;;6242487;28;20354;-62
2022/03/26 05:53:34;;;;;;;20.33;14.03;;;5.00;60.60;;;;;;6252009;28;20197;-62
2022/03/26 05:56:36;;;;;;;22.27;13.97;;;5.00;61.00;;;;;;6228606;28;20253;-62
2022/03/26 05:59:37;;;;;;;18.07;13.37;;;5.00;60.80;;;;;;6244469;28;20280;-63
2022/03/26 06:02:38;;;;;;;20.67;12.80;;;5.00;60.90;;;;;;6256650;28;20200;-64
2022/03/26 06:05:39;;;;;;;20.63;13.83;;;5.20;60.70;;;;;;6255337;28;20196;-63
2022/03/26 06:08:39;;;;;;;18.30;12.93;;;5.20;60.80;;;;;;6255156;28;20205;-63
2022/03/26 06:11:40;;;;;;;21.87;13.67;;;5.30;60.90;;;;;;6240412;28;20295;-63
2022/03/26 06:14:41;;;;;;;18.43;13.17;;;5.40;60.60;;;;;;6254189;28;20241;-63
2022/03/26 06:17:44;;;;;;;24.93;13.77;;;5.40;60.70;;;;;;6259250;28;20202;-63
2022/03/26 06:20:45;;;;;;;18.87;12.47;;;5.50;60.60;;;;;;6259728;28;20194;-63
2022/03/26 06:23:46;;;;;;;19.90;13.17;;;5.70;59.80;;;;;;6237903;28;20204;-62
2022/03/26 06:26:48;;;;;;;18.77;13.07;;;5.70;60.10;;;;;;6249300;28;20233;-62
2022/03/26 06:29:49;;;;;;;22.93;13.27;;;5.80;60.40;;;;;;6260036;28;20304;-62
2022/03/26 06:32:52;;;;;;;18.17;12.63;;;5.90;60.00;;;;;;6253934;28;20192;-63
2022/03/26 06:35:53;;;;;;;20.80;13.13;;;6.00;59.40;;;;;;6253411;28;20205;-64
2022/03/26 06:38:53;;;;;;;22.17;14.77;;;6.10;58.90;;;;;;6258783;28;20193;-62
2022/03/26 06:41:55;;;;;;;21.57;15.13;;;6.20;57.60;;;;;;6246018;28;20194;-62
2022/03/26 06:44:59;;;;;;;22.23;14.73;;;6.30;57.50;;;;;;6260882;28;20261;-63
2022/03/26 06:48:00;;;;;;;19.90;12.87;;;6.40;58.20;;;;;;6225159;28;20204;-64
2022/03/26 06:51:01;;;;;;;18.60;13.03;;;6.50;57.10;;;;;;6245451;28;20217;-62
2022/03/26 06:54:02;;;;;;;19.57;12.87;;;6.60;57.10;;;;;;6242962;28;20198;-62
2022/03/26 06:57:04;;;;;;;17.93;12.33;;;6.60;56.00;;;;;;6248035;28;20284;-62
2022/03/26 07:00:05;;;;;;;18.73;13.33;;;6.80;54.90;;;;;;6248422;28;20225;-62
2022/03/26 07:03:06;;;;;;;18.50;12.93;;;6.80;56.30;;;;;;6295293;28;20189;-62
2022/03/26 07:06:07;;;;;;;20.43;13.53;;;6.90;56.80;;;;;;6257891;28;20194;-63
2022/03/26 07:09:08;;;;;;;21.03;14.17;;;7.00;55.10;;;;;;6214875;28;20183;-62
2022/03/26 07:12:09;;;;;;;19.57;13.03;;;7.10;56.10;;;;;;6221982;28;20217;-62
2022/03/26 07:15:10;;;;;;;18.37;13.10;;;7.20;54.20;;;;;;6238477;28;20173;-63
2022/03/26 07:18:11;;;;;;;22.53;14.10;;;7.30;54.40;;;;;;6238018;28;20193;-62
2022/03/26 07:21:12;;;;;;;20.67;14.30;;;7.40;54.70;;;;;;6228753;28;20248;-62
2022/03/26 07:24:13;;;;;;;19.83;13.80;;;7.40;55.20;;;;;;6246418;28;20197;-62
2022/03/26 07:27:14;;;;;;;19.50;14.00;;;7.50;55.80;;;;;;6238666;28;20244;-61
2022/03/26 07:30:15;;;;;;;20.13;13.60;;;7.60;53.80;;;;;;6239630;28;20262;-61
2022/03/26 07:33:16;;;;;;;18.07;14.37;;;7.90;53.40;;;;;;6240996;28;20200;-61
2022/03/26 07:36:17;;;;;;;20.63;13.83;;;8.00;52.10;;;;;;6239440;28;20188;-61
2022/03/26 07:39:18;;;;;;;20.57;13.53;;;8.10;52.70;;;;;;6236744;28;20200;-61
2022/03/26 07:42:19;;;;;;;21.20;14.23;;;8.20;52.10;;;;;;6269292;28;20181;-61
2022/03/26 07:45:20;;;;;;;20.03;13.93;;;8.20;51.80;;;;;;6268513;28;20199;-61
2022/03/26 07:48:20;;;;;;;22.67;14.30;;;8.30;53.60;;;;;;6268872;28;20199;-61
2022/03/26 07:51:21;;;;;;;17.03;12.97;;;8.40;52.30;;;;;;6254563;28;20218;-62
2022/03/26 07:54:23;;;;;;;18.67;13.37;;;8.40;52.90;;;;;;6219367;28;20197;-62
2022/03/26 07:57:24;;;;;;;20.47;13.20;;;8.60;52.00;;;;;;6240299;28;20189;-62
2022/03/26 08:00:24;;;;;;;21.93;14.97;;;8.70;52.20;;;;;;6220090;28;20260;-62
2022/03/26 08:03:25;;;;;;;22.10;13.47;;;8.70;52.30;;;;;;6219624;28;20187;-61
2022/03/26 08:06:26;;;;;;;17.13;13.83;;;8.80;52.20;;;;;;6232080;28;20196;-61
2022/03/26 08:09:27;;;;;;;20.73;14.47;;;9.00;50.60;;;;;;6267694;28;20255;-61
2022/03/26 08:12:28;;;;;;;19.63;14.47;;;9.10;51.10;;;;;;6268803;28;20195;-62
2022/03/26 08:15:29;;;;;;;20.90;14.60;;;9.20;50.00;;;;;;6276903;28;20201;-62
2022/03/26 08:18:30;;;;;;;23.63;14.33;;;9.30;49.70;;;;;;6243729;28;20212;-63
2022/03/26 08:21:32;;;;;;;18.93;13.43;;;9.40;49.10;;;;;;6259973;28;20195;-63
2022/03/26 08:24:33;;;;;;;22.27;15.30;;;9.60;48.50;;;;;;6259323;28;20236;-63
2022/03/26 08:27:33;;;;;;;20.13;15.23;;;9.70;48.60;;;;;;6243103;28;20233;-62
2022/03/26 08:30:35;;;;;;;20.53;14.47;;;9.80;48.00;;;;;;6246560;28;20228;-62
2022/03/26 08:33:40;;;;;;;20.73;14.37;;;10.10;47.20;;;;;;6275996;28;20197;-62
2022/03/26 08:36:41;;;;;;;21.67;14.17;;;10.30;46.70;;;;;;6242974;28;20214;-62
2022/03/26 08:39:42;;;;;;;28.70;15.73;;;10.30;46.60;;;;;;6253446;28;20188;-62
2022/03/26 08:42:43;;;;;;;23.03;14.80;;;10.40;46.70;;;;;;6244377;28;20194;-62
2022/03/26 08:45:44;;;;;;;25.83;16.10;;;10.50;46.30;;;;;;6241387;28;20243;-62
2022/03/26 08:48:45;;;;;;;21.03;14.53;;;10.70;45.90;;;;;;6243637;28;20213;-62
2022/03/26 08:51:46;;;;;;;23.43;15.20;;;10.80;45.40;;;;;;6267803;28;20239;-61
2022/03/26 08:54:48;;;;;;;22.30;15.40;;;10.80;45.00;;;;;;6247221;28;20198;-58
2022/03/26 08:57:49;;;;;;;22.17;14.93;;;11.00;44.90;;;;;;6267988;28;20196;-57
2022/03/26 09:00:51;;;;;;;21.63;14.50;;;11.10;43.40;;;;;;6267190;28;20220;-59
2022/03/26 09:03:52;;;;;;;22.67;15.23;;;11.30;42.70;;;;;;6253974;28;20201;-57
2022/03/26 09:06:52;;;;;;;21.53;15.40;;;11.30;41.90;;;;;;6264072;28;20240;-57
2022/03/26 09:09:53;;;;;;;25.43;15.67;;;11.60;40.20;;;;;;6264071;28;20219;-59
2022/03/26 09:12:55;;;;;;;23.77;15.90;;;11.80;38.00;;;;;;6240396;28;20190;-57
2022/03/26 09:15:56;;;;;;;20.67;15.07;;;11.90;37.70;;;;;;6254351;28;20224;-56
2022/03/26 09:18:57;;;;;;;25.93;14.83;;;12.00;36.70;;;;;;6239068;28;20193;-56
2022/03/26 09:21:58;;;;;;;24.33;15.73;;;12.20;36.90;;;;;;6237514;28;20246;-58
2022/03/26 09:24:59;;;;;;;21.90;15.10;;;12.40;35.70;;;;;;6222265;28;20281;-58
2022/03/26 09:28:00;;;;;;;24.77;16.17;;;12.50;36.10;;;;;;6238522;28;20233;-57
2022/03/26 09:31:01;;;;;;;20.80;15.13;;;12.80;33.60;;;;;;6238611;28;20232;-57
2022/03/26 09:34:01;;;;;;;23.77;16.13;;;12.90;33.80;;;;;;6239346;28;20191;-57
2022/03/26 09:37:03;;;;;;;22.47;14.97;;;13.20;32.40;;;;;;6237968;28;20196;-57
2022/03/26 09:40:04;;;;;;;23.57;15.57;;;13.20;32.30;;;;;;6253894;28;20213;-57
2022/03/26 09:43:05;;;;;;;22.73;15.47;;;13.30;32.00;;;;;;6254078;28;20292;-58
2022/03/26 09:46:06;;;;;;;23.43;15.70;;;13.50;32.30;;;;;;6239119;28;20199;-58
2022/03/26 09:49:09;;;;;;;23.13;16.07;;;13.60;32.90;;;;;;6237454;28;20193;-59
2022/03/26 09:52:10;;;;;;;25.37;16.33;;;13.80;32.50;;;;;;6262439;28;20225;-59
2022/03/26 09:55:13;;;;;;;24.73;15.67;;;14.10;31.50;;;;;;6237358;28;20200;-59
2022/03/26 09:58:14;;;;;;;19.90;15.57;;;14.00;31.30;;;;;;6253953;28;20194;-58
2022/03/26 10:01:15;;;;;;;26.57;16.90;;;14.20;30.90;;;;;;6236917;28;20293;-59
2022/03/26 10:04:17;;;;;;;25.40;16.40;;;14.10;31.30;;;;;;6237089;28;20271;-59
2022/03/26 10:07:28;;;;;;;24.57;15.83;;;14.20;31.10;;;;;;6252456;28;20202;-57
2022/03/26 10:10:29;;;;;;;25.63;17.17;;;14.20;30.90;;;;;;6253417;28;20218;-58
2022/03/26 10:13:43;;;;;;;27.43;17.20;;;14.50;29.90;;;;;;6238085;28;20190;-57
2022/03/26 10:16:51;;;;;;;26.13;17.47;;;14.50;30.30;;;;;;6260253;28;20257;-57
2022/03/26 10:20:04;;;;;;;23.17;17.07;;;14.60;31.20;;;;;;6220632;28;20201;-58
2022/03/26 10:23:05;;;;;;;27.80;16.27;;;14.70;30.20;;;;;;6269926;28;20202;-56
2022/03/26 10:26:17;;;;;;;27.70;16.30;;;14.80;30.80;;;;;;6257304;28;20196;-57
2022/03/26 10:29:18;;;;;;;27.90;16.50;;;14.90;30.10;;;;;;6254058;28;20249;-56
2022/03/26 10:32:41;;;;;;;24.40;17.53;;;15.00;29.20;;;;;;6253734;28;20221;-55
2022/03/26 10:35:52;;;;;;;25.43;17.50;;;15.00;29.20;;;;;;6269398;28;20197;-57
2022/03/26 10:38:53;;;;;;;26.20;17.53;;;15.10;29.90;;;;;;6269814;28;20190;-55
2022/03/26 10:41:54;;;;;;;24.20;17.57;;;15.20;28.80;;;;;;6235347;28;20193;-57
2022/03/26 10:44:59;;;;;;;26.33;17.83;;;15.30;29.30;;;;;;6253704;28;20189;-60
2022/03/26 10:48:01;;;;;;;28.03;18.03;;;15.30;28.70;;;;;;6269679;28;20194;-61
2022/03/26 10:51:06;;;;;;;23.53;17.47;;;15.40;29.00;;;;;;6252744;28;20219;-60
2022/03/26 10:54:11;;;;;;;33.30;18.53;;;15.40;28.30;;;;;;6253603;28;20193;-60
2022/03/26 10:57:12;;;;;;;27.87;16.73;;;15.70;29.20;;;;;;6269554;28;20194;-60
2022/03/26 11:00:15;;;;;;;20.77;16.13;;;15.80;29.40;;;;;;6245394;28;20214;-60
2022/03/26 11:03:17;;;;;;;27.93;18.93;;;15.90;29.40;;;;;;6290869;28;20248;-60
2022/03/26 11:06:21;;;;;;;23.33;17.57;;;15.90;27.60;;;;;;6269193;28;20187;-59
2022/03/26 11:09:22;;;;;;;22.60;17.10;;;16.00;28.40;;;;;;6269536;28;20182;-61
2022/03/26 11:12:23;;;;;;;31.80;18.20;;;16.10;27.90;;;;;;6282212;28;20213;-61
2022/03/26 11:15:28;;;;;;;26.57;17.90;;;16.30;27.50;;;;;;6256469;28;20199;-61
2022/03/26 11:18:41;;;;;;;26.60;17.63;;;16.40;27.40;;;;;;6269840;28;20190;-60
2022/03/26 11:22:00;;;;;;;23.70;17.73;;;16.50;27.30;;;;;;6260080;28;20196;-59
2022/03/26 11:25:30;;;;;;;31.30;19.03;;;16.60;28.40;;;;;;6269942;28;20281;-60
2022/03/26 11:28:39;;;;;;;26.43;20.67;;;16.80;28.10;;;;;;6246301;28;20234;-60
2022/03/26 11:31:48;;;;;;;25.63;18.53;;;16.90;26.20;;;;;;6285021;28;20311;-59
2022/03/26 11:34:59;;;;;;;26.67;18.63;;;17.00;27.50;;;;;;6248144;28;20187;-60
2022/03/26 11:38:02;;;;;;;24.77;17.80;;;17.00;26.80;;;;;;6287658;28;20217;-60
2022/03/26 11:41:07;;;;;;;28.33;18.70;;;17.30;28.40;;;;;;6310583;28;20218;-60
2022/03/26 11:44:09;;;;;;;27.20;18.40;;;17.70;27.20;;;;;;6305810;28;20194;-61
2022/03/26 11:50:42;;;;;;;23.57;18.20;;;18.00;26.80;;;;;;6264794;28;20219;-61
2022/03/26 11:53:47;;;;;;;30.83;19.53;;;18.30;26.00;;;;;;6235164;28;20199;-61
2022/03/26 11:57:14;;;;;;;24.37;18.83;;;18.40;25.90;;;;;;6286630;28;20253;-61
2022/03/26 12:00:21;;;;;;;26.77;18.13;;;18.60;25.70;;;;;;6289223;28;20182;-60
2022/03/26 12:03:27;;;;;;;23.83;17.50;;;18.80;25.00;;;;;;6306473;28;20183;-57
2022/03/26 12:06:49;;;;;;;26.87;18.70;;;18.90;25.80;;;;;;6289441;28;20186;-60
2022/03/26 12:10:10;;;;;;;25.63;18.03;;;19.00;25.40;;;;;;6289010;28;20191;-60
2022/03/26 12:13:20;;;;;;;23.60;17.80;;;19.30;24.90;;;;;;6254499;28;20471;-60
2022/03/26 12:16:50;;;;;;;24.40;18.13;;;19.60;24.40;;;;;;6278544;28;20183;-60
2022/03/26 12:19:51;;;;;;;23.17;18.27;;;19.70;23.80;;;;;;6290874;28;20273;-60
2022/03/26 12:23:07;;;;;;;23.60;17.13;;;21.70;22.50;;;;;;6291994;28;20213;-60
2022/03/26 12:26:08;;;;;;;27.77;18.13;;;24.30;20.60;;;;;;6310598;28;20211;-61
2022/03/26 12:29:09;;;;;;;24.53;17.80;;;25.80;18.10;;;;;;6305165;28;20236;-61
2022/03/26 12:32:10;;;;;;;24.30;18.90;;;26.10;17.90;;;;;;6310283;28;20213;-61
2022/03/26 12:35:11;;;;;;;27.03;19.57;;;26.70;17.50;;;;;;6314094;28;20197;-61
2022/03/26 12:38:12;;;;;;;24.87;18.80;;;26.60;17.50;;;;;;6296045;28;20196;-61
2022/03/26 12:41:14;;;;;;;24.87;18.87;;;25.60;18.40;;;;;;6313522;28;20189;-61
2022/03/26 12:44:16;;;;;;;24.50;19.73;;;25.00;19.70;;;;;;6290105;28;20229;-61
2022/03/26 12:47:21;;;;;;;22.37;19.93;;;24.80;20.60;;;;;;6273688;28;20209;-60
2022/03/26 12:50:23;;;;;;;23.73;19.00;;;25.30;19.50;;;;;;6287429;28;20317;-60
2022/03/26 12:53:24;;;;;;;25.20;19.37;;;25.70;18.50;;;;;;6303774;28;20186;-60
2022/03/26 12:56:25;;;;;;;23.83;18.47;;;25.00;18.60;;;;;;6272710;28;20195;-60
2022/03/26 12:59:26;;;;;;;22.03;17.33;;;25.30;18.50;;;;;;6280462;28;20364;-60
2022/03/26 13:02:28;;;;;;;23.77;18.83;;;26.20;18.20;;;;;;6272189;28;20202;-60
2022/03/26 13:05:31;;;;;;;22.80;18.77;;;26.90;16.90;;;;;;6271376;28;20209;-60
2022/03/26 13:08:32;;;;;;;26.40;19.43;;;27.90;16.40;;;;;;6288702;28;20190;-60
2022/03/26 13:11:33;;;;;;;22.83;18.03;;;29.00;15.90;;;;;;6280356;28;20222;-60
2022/03/26 13:14:34;;;;;;;20.37;17.30;;;30.80;14.50;;;;;;6283572;28;20218;-60
2022/03/26 13:17:34;;;;;;;24.70;17.83;;;33.00;13.60;;;;;;6289110;28;20190;-60
2022/03/26 13:20:38;;;;;;;21.70;17.70;;;35.30;12.60;;;;;;6271682;28;20214;-60
2022/03/26 13:23:49;;;;;;;22.37;17.40;;;37.30;10.90;;;;;;6288458;28;20190;-60
2022/03/26 13:26:58;;;;;;;21.67;18.43;;;38.30;11.00;;;;;;6287467;28;20262;-60
2022/03/26 13:30:10;;;;;;;19.40;16.87;;;39.00;9.90;;;;;;6247727;28;20254;-60
2022/03/26 13:33:31;;;;;;;22.23;17.80;;;38.90;10.10;;;;;;6238960;28;20186;-61
2022/03/26 13:36:32;;;;;;;25.77;18.93;;;40.20;9.30;;;;;;6254680;28;20225;-60
2022/03/26 13:39:33;;;;;;;20.97;18.83;;;40.10;9.40;;;;;;6237845;28;20186;-61
2022/03/26 13:42:42;;;;;;;20.73;18.53;;;41.20;9.00;;;;;;6234949;28;20204;-60
2022/03/26 13:45:45;;;;;;;21.73;17.03;;;40.50;9.10;;;;;;6239012;28;20288;-60
2022/03/26 13:48:57;;;;;;;19.97;17.97;;;40.70;9.40;;;;;;6253075;28;20224;-60
2022/03/26 13:52:07;;;;;;;21.07;16.97;;;41.20;9.20;;;;;;6253381;28;20226;-60
2022/03/26 13:55:22;;;;;;;24.00;18.47;;;40.70;9.10;;;;;;6230278;28;20274;-60
2022/03/26 13:58:23;;;;;;;18.97;17.03;;;40.50;9.10;;;;;;6241525;28;20279;-60
2022/03/26 14:01:24;;;;;;;18.93;16.93;;;40.20;9.20;;;;;;6246468;28;20194;-61
2022/03/26 14:04:25;;;;;;;19.83;17.63;;;40.80;9.20;;;;;;6230403;28;20198;-60
2022/03/26 14:07:26;;;;;;;18.70;16.87;;;41.60;9.00;;;;;;6236708;28;20210;-61
2022/03/26 14:10:42;;;;;;;19.30;17.30;;;41.40;9.00;;;;;;6237554;28;20300;-60
2022/03/26 14:13:44;;;;;;;21.43;17.23;;;41.00;9.20;;;;;;6269510;28;20201;-60
2022/03/26 14:16:45;;;;;;;18.70;16.50;;;40.90;9.00;;;;;;6236132;28;20224;-60
2022/03/26 14:19:46;;;;;;;21.60;17.50;;;40.40;9.50;;;;;;6236885;28;20193;-60
2022/03/26 14:22:47;;;;;;;18.63;15.80;;;41.00;9.40;;;;;;6236317;28;20339;-61
2022/03/26 14:25:50;;;;;;;19.37;16.77;;;41.70;9.20;;;;;;6236887;28;20201;-61
2022/03/26 14:28:51;;;;;;;20.77;17.47;;;41.70;9.30;;;;;;6271530;28;20248;-61
2022/03/26 14:31:51;;;;;;;18.90;17.03;;;41.30;8.70;;;;;;6253688;28;20213;-60
2022/03/26 14:34:52;;;;;;;20.97;17.07;;;41.00;9.00;;;;;;6286952;28;20193;-61
2022/03/26 14:37:53;;;;;;;18.73;16.80;;;41.40;8.60;;;;;;6273092;28;20187;-60
2022/03/26 14:40:54;;;;;;;19.60;17.57;;;41.00;8.90;;;;;;6291909;28;20189;-61
2022/03/26 14:43:55;;;;;;;18.13;16.23;;;40.20;9.10;;;;;;6307222;28;20199;-61
2022/03/26 14:46:56;;;;;;;19.13;17.13;;;39.80;9.60;;;;;;6289226;28;20236;-61
2022/03/26 14:49:57;;;;;;;18.87;17.07;;;39.90;9.70;;;;;;6256038;28;20208;-61
2022/03/26 14:52:58;;;;;;;19.60;17.30;;;40.40;9.50;;;;;;6272579;28;20194;-60
2022/03/26 14:55:58;;;;;;;19.47;17.47;;;40.20;9.70;;;;;;6288523;28;20189;-61
2022/03/26 14:58:59;;;;;;;18.07;16.13;;;40.20;9.40;;;;;;6266165;28;20204;-61
2022/03/26 15:02:00;;;;;;;19.40;17.47;;;39.20;9.80;;;;;;6291052;28;20189;-60
2022/03/26 15:05:01;;;;;;;21.80;18.23;;;38.80;9.70;;;;;;6309240;28;20216;-61
2022/03/26 15:08:02;;;;;;;19.97;16.43;;;38.00;10.60;;;;;;6294786;28;20204;-61
2022/03/26 15:11:04;;;;;;;18.83;16.57;;;37.50;10.60;;;;;;6289551;28;20221;-60
2022/03/26 15:14:04;;;;;;;20.07;17.47;;;37.90;10.50;;;;;;6289226;28;20185;-60
2022/03/26 15:17:05;;;;;;;22.87;18.13;;;37.30;10.80;;;;;;6289243;28;20193;-60
2022/03/26 15:20:07;;;;;;;19.13;17.13;;;36.10;11.70;;;;;;6277576;28;20212;-61
2022/03/26 15:23:08;;;;;;;21.80;16.87;;;33.70;12.70;;;;;;6314946;28;20185;-60
2022/03/26 15:26:08;;;;;;;20.57;16.97;;;30.80;14.90;;;;;;6273391;28;20198;-60
2022/03/26 15:29:10;;;;;;;20.90;16.67;;;29.10;16.20;;;;;;6273085;28;20271;-61
2022/03/26 15:32:11;;;;;;;20.50;16.23;;;28.10;17.20;;;;;;6214955;28;20218;-60
2022/03/26 15:35:12;;;;;;;21.63;17.40;;;27.70;17.10;;;;;;6231274;28;20191;-61
2022/03/26 15:38:13;;;;;;;23.93;16.93;;;26.40;17.60;;;;;;6217323;28;20245;-60